Time;durP1;ratioP1;P1;durP2;ratioP2;P2;SDS_P1;SDS_P2;PMS_P1;PMS_P2;Temp;Humidity;BMP_temperature;BMP_pressure;BME280_temperature;BME280_humidity;BME280_pressure;Samples;Min_cycle;Max_cycle;Signal;HPM_P1;HPM_P2
2023/05/12 00:02:20;;;;;;;;;;;14.20;97.20;;;;;;6106832;23;19905;-96
2023/05/12 00:04:52;;;;;;;;;;;14.20;97.20;;;;;;6105771;23;19912;-96
2023/05/12 00:07:18;;;;;;;;;;;14.20;97.20;;;;;;6105623;23;19939;-95
2023/05/12 00:09:45;;;;;;;;;;;14.20;97.20;;;;;;6130472;23;19912;-96
2023/05/12 00:12:13;;;;;;;;;;;14.20;97.20;;;;;;6105904;23;20336;-96
2023/05/12 00:14:58;;;;;;;;;;;14.20;97.20;;;;;;6106721;23;19905;-96
2023/05/12 00:17:47;;;;;;;;;;;14.20;97.20;;;;;;6156525;23;19900;-96
2023/05/12 00:20:32;;;;;;;;;;;14.20;97.20;;;;;;6130064;23;19901;-96
2023/05/12 00:23:00;;;;;;;;;;;14.20;97.20;;;;;;6130497;23;20310;-96
2023/05/12 00:25:26;;;;;;;;;;;14.20;97.20;;;;;;6106111;23;19987;-96
2023/05/12 00:28:13;;;;;;;;;;;14.20;97.20;;;;;;6156473;23;19958;-96
2023/05/12 00:30:59;;;;;;;;;;;14.20;97.20;;;;;;6156293;23;20310;-96
2023/05/12 00:33:28;;;;;;;;;;;14.20;97.20;;;;;;6156656;23;20340;-96
2023/05/12 00:36:16;;;;;;;;;;;14.20;97.20;;;;;;6131766;23;19992;-96
2023/05/12 00:39:03;;;;;;;;;;;14.00;97.20;;;;;;6155763;23;19928;-96
2023/05/12 00:41:49;;;;;;;;;;;14.20;97.20;;;;;;6130974;23;20450;-96
2023/05/12 00:44:32;;;;;;;;;;;14.40;97.30;;;;;;6156325;23;19928;-96
2023/05/12 00:46:58;;;;;;;;;;;14.20;97.20;;;;;;6105836;23;19916;-96
2023/05/12 00:49:46;;;;;;;;;;;14.20;97.20;;;;;;6156253;23;20310;-96
2023/05/12 00:52:51;;;;;;;;;;;14.20;97.30;;;;;;6156222;23;19956;-96
2023/05/12 00:55:37;;;;;;;;;;;14.20;97.30;;;;;;6155828;23;19924;-96
2023/05/12 00:58:06;;;;;;;;;;;14.20;97.30;;;;;;6156953;23;19908;-96
2023/05/12 01:00:53;;;;;;;;;;;14.20;97.30;;;;;;6130684;23;19912;-96
2023/05/12 01:03:40;;;;;;;;;;;14.20;97.60;;;;;;6155952;23;19900;-96
2023/05/12 01:06:32;;;;;;;;;;;14.20;97.30;;;;;;6131222;23;19979;-96
2023/05/12 01:09:30;;;;;;;;;;;14.20;97.30;;;;;;6157211;23;19931;-96
2023/05/12 01:11:56;;;;;;;;;;;14.20;97.30;;;;;;6131971;23;19907;-96
2023/05/12 01:14:42;;;;;;;;;;;14.20;97.30;;;;;;6105269;23;19905;-96
2023/05/12 01:17:28;;;;;;;;;;;14.20;97.30;;;;;;6131510;23;19931;-96
2023/05/12 01:20:03;;;;;;;;;;;14.20;97.30;;;;;;6157002;23;19900;-96
2023/05/12 01:23:11;;;;;;;;;;;14.20;97.30;;;;;;6135007;23;19932;-96
2023/05/12 01:25:38;;;;;;;;;;;14.20;97.30;;;;;;6157080;23;19901;-96
2023/05/12 01:28:44;;;;;;;;;;;14.20;97.30;;;;;;6134839;23;19915;-96
2023/05/12 01:31:50;;;;;;;;;;;14.20;97.30;;;;;;6156508;23;19900;-96
2023/05/12 01:34:58;;;;;;;;;;;14.20;97.30;;;;;;6157052;23;19968;-96
2023/05/12 01:37:45;;;;;;;;;;;14.20;97.30;;;;;;6130257;23;19900;-96
2023/05/12 01:40:32;;;;;;;;;;;14.10;97.30;;;;;;6157319;23;19900;-96
2023/05/12 01:43:18;;;;;;;;;;;14.20;97.30;;;;;;6158687;23;19901;-96
2023/05/12 01:46:09;;;;;;;;;;;14.30;97.40;;;;;;6158311;23;19901;-96
2023/05/12 01:48:36;;;;;;;;;;;14.10;97.30;;;;;;6158359;23;20436;-96
2023/05/12 01:51:22;;;;;;;;;;;14.10;97.30;;;;;;6108399;23;19939;-96
2023/05/12 01:54:12;;;;;;;;;;;14.10;97.30;;;;;;6158939;23;20355;-96
2023/05/12 01:56:59;;;;;;;;;;;14.10;97.30;;;;;;6158464;23;19947;-96
2023/05/12 01:59:48;;;;;;;;;;;14.10;97.30;;;;;;6158670;23;19939;-96
2023/05/12 02:02:54;;;;;;;;;;;14.10;97.30;;;;;;6135870;23;19955;-96
2023/05/12 02:05:42;;;;;;;;;;;14.10;97.30;;;;;;6159045;23;19928;-96
2023/05/12 02:08:29;;;;;;;;;;;14.10;97.40;;;;;;6157459;23;19983;-96
2023/05/12 02:11:08;;;;;;;;;;;14.10;97.40;;;;;;6157902;23;20262;-96
2023/05/12 02:14:58;;;;;;;;;;;14.10;97.40;;;;;;6145807;23;19916;-96
2023/05/12 02:17:49;;;;;;;;;;;14.10;97.40;;;;;;6157495;23;19905;-96
2023/05/12 02:20:32;;;;;;;;;;;14.20;97.40;;;;;;6156330;23;19900;-96
2023/05/12 02:23:01;;;;;;;;;;;14.10;97.40;;;;;;6130890;23;19963;-96
2023/05/12 02:25:27;;;;;;;;;;;14.10;97.40;;;;;;6132607;23;19904;-96
2023/05/12 02:27:53;;;;;;;;;;;14.10;97.40;;;;;;6106928;23;19915;-96
2023/05/12 02:30:18;;;;;;;;;;;14.10;97.40;;;;;;6129367;23;19900;-96
2023/05/12 02:33:04;;;;;;;;;;;14.10;97.40;;;;;;6131472;23;19951;-96
2023/05/12 02:35:51;;;;;;;;;;;14.20;97.40;;;;;;6160963;23;19923;-96
2023/05/12 02:38:39;;;;;;;;;;;14.20;97.40;;;;;;6158668;23;19901;-96
2023/05/12 02:41:06;;;;;;;;;;;14.10;97.40;;;;;;6157884;23;19900;-96
2023/05/12 02:43:32;;;;;;;;;;;14.10;97.40;;;;;;6107616;23;19904;-96
2023/05/12 02:46:06;;;;;;;;;;;14.10;97.40;;;;;;6109526;23;19905;-96
2023/05/12 02:48:35;;;;;;;;;;;14.10;97.40;;;;;;6108539;23;19916;-96
2023/05/12 02:51:04;;;;;;;;;;;14.00;97.40;;;;;;6133914;23;20230;-96
2023/05/12 02:53:30;;;;;;;;;;;14.10;97.40;;;;;;6108173;23;20334;-96
2023/05/12 02:55:56;;;;;;;;;;;14.10;97.40;;;;;;6110010;23;19909;-96
2023/05/12 02:58:42;;;;;;;;;;;14.10;97.40;;;;;;6111349;23;19911;-96
2023/05/12 03:01:34;;;;;;;;;;;14.10;97.40;;;;;;6164755;23;19901;-96
2023/05/12 03:04:36;;;;;;;;;;;14.10;97.40;;;;;;6163272;23;19901;-96
2023/05/12 03:07:23;;;;;;;;;;;14.10;97.40;;;;;;6163141;23;19904;-96
2023/05/12 03:09:50;;;;;;;;;;;14.10;97.40;;;;;;6161325;23;19908;-96
2023/05/12 03:12:17;;;;;;;;;;;14.10;97.40;;;;;;6133983;23;19910;-96
2023/05/12 03:14:43;;;;;;;;;;;14.10;97.40;;;;;;6134397;23;19905;-96
2023/05/12 03:17:09;;;;;;;;;;;14.10;97.40;;;;;;6133587;23;19916;-96
2023/05/12 03:19:35;;;;;;;;;;;14.10;97.40;;;;;;6109205;23;19911;-96
2023/05/12 03:22:06;;;;;;;;;;;13.90;97.40;;;;;;6132739;23;19900;-96
2023/05/12 03:24:33;;;;;;;;;;;14.10;97.40;;;;;;6133784;23;19904;-96
2023/05/12 03:27:12;;;;;;;;;;;14.10;97.40;;;;;;6111774;23;19928;-96
2023/05/12 03:29:38;;;;;;;;;;;14.10;97.40;;;;;;6109039;23;19995;-96
2023/05/12 03:32:24;;;;;;;;;;;14.10;97.40;;;;;;6108304;23;19963;-96
2023/05/12 03:34:52;;;;;;;;;;;14.10;97.40;;;;;;6136531;23;19900;-96
2023/05/12 03:37:42;;;;;;;;;;;14.10;97.40;;;;;;6135879;23;19955;-96
2023/05/12 03:40:17;;;;;;;;;;;14.10;97.40;;;;;;6163025;23;19972;-96
2023/05/12 03:42:53;;;;;;;;;;;14.10;97.40;;;;;;6142988;23;19901;-96
2023/05/12 03:45:42;;;;;;;;;;;14.10;97.40;;;;;;6140457;23;19905;-96
2023/05/12 03:48:07;;;;;;;;;;;14.10;97.40;;;;;;6112052;23;19916;-96
2023/05/12 03:50:35;;;;;;;;;;;14.10;97.40;;;;;;6134813;23;19962;-96
2023/05/12 03:53:21;;;;;;;;;;;14.10;97.40;;;;;;6110664;23;19911;-96
2023/05/12 03:55:52;;;;;;;;;;;14.10;97.40;;;;;;6159576;23;19975;-96
2023/05/12 03:58:21;;;;;;;;;;;14.10;97.40;;;;;;6134555;23;19905;-96
2023/05/12 04:00:55;;;;;;;;;;;14.10;97.40;;;;;;6109007;23;19999;-96
2023/05/12 04:03:42;;;;;;;;;;;14.10;97.40;;;;;;6111203;23;19904;-96
2023/05/12 04:06:08;;;;;;;;;;;14.10;97.40;;;;;;6134246;23;19904;-96
2023/05/12 04:08:34;;;;;;;;;;;14.10;97.40;;;;;;6133568;23;19967;-96
2023/05/12 04:11:00;;;;;;;;;;;14.10;97.40;;;;;;6107703;23;19915;-96
2023/05/12 04:13:30;;;;;;;;;;;14.10;97.40;;;;;;6132219;23;19905;-96
2023/05/12 04:16:17;;;;;;;;;;;14.10;97.40;;;;;;6133157;23;19915;-96
2023/05/12 04:18:43;;;;;;;;;;;14.10;97.40;;;;;;6158041;23;19901;-96
2023/05/12 04:21:10;;;;;;;;;;;14.10;97.40;;;;;;6131207;23;19911;-96
2023/05/12 04:23:36;;;;;;;;;;;14.10;97.40;;;;;;6106474;23;20434;-96
2023/05/12 04:26:06;;;;;;;;;;;14.10;97.50;;;;;;6106365;23;19951;-96
2023/05/12 04:28:32;;;;;;;;;;;14.10;97.50;;;;;;6131299;23;19905;-96
2023/05/12 04:31:11;;;;;;;;;;;14.10;97.50;;;;;;6130856;23;19904;-96
2023/05/12 04:33:39;;;;;;;;;;;14.10;97.50;;;;;;6130961;23;19905;-96
2023/05/12 04:36:06;;;;;;;;;;;14.10;97.50;;;;;;6156701;23;19908;-96
2023/05/12 04:38:33;;;;;;;;;;;14.10;97.50;;;;;;6107304;23;19912;-96
2023/05/12 04:40:59;;;;;;;;;;;14.10;97.50;;;;;;6106441;23;19987;-96
2023/05/12 04:43:25;;;;;;;;;;;14.10;97.50;;;;;;6130485;23;19959;-96
2023/05/12 04:45:54;;;;;;;;;;;14.10;97.50;;;;;;6106357;23;19908;-96
2023/05/12 04:48:41;;;;;;;;;;;14.10;97.50;;;;;;6106935;23;19909;-96
2023/05/12 04:51:07;;;;;;;;;;;14.10;97.50;;;;;;6131186;23;19983;-96
2023/05/12 04:53:35;;;;;;;;;;;14.10;97.50;;;;;;6130761;23;19904;-96
2023/05/12 04:56:01;;;;;;;;;;;13.90;97.40;;;;;;6106130;23;19904;-96
2023/05/12 04:58:28;;;;;;;;;;;14.20;97.50;;;;;;6131258;23;19900;-96
2023/05/12 05:00:56;;;;;;;;;;;14.10;97.50;;;;;;6106742;23;19908;-96
2023/05/12 05:03:41;;;;;;;;;;;14.10;97.50;;;;;;6106142;23;19905;-96
2023/05/12 05:06:20;;;;;;;;;;;14.10;97.50;;;;;;6130730;23;19909;-96
2023/05/12 05:08:46;;;;;;;;;;;14.10;97.50;;;;;;6130426;23;20023;-96
2023/05/12 05:11:28;;;;;;;;;;;14.10;97.50;;;;;;6130462;23;20314;-96
2023/05/12 05:14:14;;;;;;;;;;;14.10;97.50;;;;;;6132177;23;19904;-96
2023/05/12 05:16:40;;;;;;;;;;;14.10;97.50;;;;;;6158154;23;19923;-96
2023/05/12 05:19:27;;;;;;;;;;;14.10;97.50;;;;;;6132436;23;19963;-96
2023/05/12 05:22:13;;;;;;;;;;;14.10;97.50;;;;;;6157240;23;19908;-96
2023/05/12 05:24:59;;;;;;;;;;;14.10;97.50;;;;;;6132631;23;19900;-96
2023/05/12 05:27:47;;;;;;;;;;;14.10;97.50;;;;;;6158293;23;19909;-96
2023/05/12 05:30:35;;;;;;;;;;;14.10;97.50;;;;;;6158654;23;19901;-96
2023/05/12 05:33:01;;;;;;;;;;;14.10;97.50;;;;;;6131687;23;19904;-96
2023/05/12 05:35:27;;;;;;;;;;;14.10;97.50;;;;;;6107092;23;19931;-96
2023/05/12 05:37:53;;;;;;;;;;;14.10;97.50;;;;;;6108136;23;19987;-96
2023/05/12 05:40:40;;;;;;;;;;;14.10;97.50;;;;;;6132276;23;19904;-96
2023/05/12 05:43:14;;;;;;;;;;;14.10;97.50;;;;;;6157956;23;19904;-96
2023/05/12 05:45:59;;;;;;;;;;;14.10;97.50;;;;;;6107756;23;20270;-96
2023/05/12 05:48:27;;;;;;;;;;;14.10;97.50;;;;;;6157740;23;19940;-96
2023/05/12 05:51:22;;;;;;;;;;;14.10;97.50;;;;;;6133699;23;19987;-96
2023/05/12 05:54:29;;;;;;;;;;;14.10;97.50;;;;;;6158301;23;19904;-96
2023/05/12 05:56:59;;;;;;;;;;;14.10;97.50;;;;;;6157876;23;19954;-96
2023/05/12 05:59:42;;;;;;;;;;;14.20;97.50;;;;;;6108386;23;19908;-96
2023/05/12 06:02:10;;;;;;;;;;;14.10;97.50;;;;;;6157622;23;19900;-95
2023/05/12 06:04:36;;;;;;;;;;;14.10;97.50;;;;;;6131593;23;19928;-96
2023/05/12 06:07:22;;;;;;;;;;;14.10;97.50;;;;;;6107127;23;19959;-95
2023/05/12 06:09:48;;;;;;;;;;;14.10;97.50;;;;;;6131119;23;19916;-96
2023/05/12 06:12:33;;;;;;;;;;;14.10;97.50;;;;;;6107313;23;20261;-96
2023/05/12 06:15:17;;;;;;;;;;;14.30;97.50;;;;;;6131601;23;19900;-96
2023/05/12 06:17:44;;;;;;;;;;;14.10;97.50;;;;;;6157828;23;19900;-96
2023/05/12 06:20:30;;;;;;;;;;;14.10;97.50;;;;;;6107345;23;19914;-96
2023/05/12 06:23:16;;;;;;;;;;;14.10;97.50;;;;;;6157284;23;19934;-96
2023/05/12 06:25:43;;;;;;;;;;;14.10;97.50;;;;;;6157359;23;19907;-95
2023/05/12 06:28:09;;;;;;;;;;;14.10;97.50;;;;;;6130208;23;19905;-96
2023/05/12 06:30:34;;;;;;;;;;;14.10;97.40;;;;;;6107120;23;19992;-96
2023/05/12 06:33:20;;;;;;;;;;;14.10;97.80;;;;;;6107174;23;19909;-96
2023/05/12 06:35:47;;;;;;;;;;;14.10;97.40;;;;;;6157349;23;19904;-96
2023/05/12 06:38:33;;;;;;;;;;;14.10;97.40;;;;;;6132158;23;19936;-96
2023/05/12 06:41:02;;;;;;;;;;;14.20;97.50;;;;;;6157151;23;19901;-96
2023/05/12 06:43:30;;;;;;;;;;;14.10;97.40;;;;;;6132087;23;19904;-96
2023/05/12 06:45:57;;;;;;;;;;;14.10;97.40;;;;;;6131339;23;20384;-95
2023/05/12 06:48:28;;;;;;;;;;;14.10;97.40;;;;;;6107320;23;19908;-96
2023/05/12 06:50:55;;;;;;;;;;;14.10;97.40;;;;;;6132059;23;19901;-96
2023/05/12 06:53:28;;;;;;;;;;;14.40;97.50;;;;;;6131188;23;19904;-96
2023/05/12 06:55:54;;;;;;;;;;;14.10;97.40;;;;;;6107618;23;19905;-95
2023/05/12 06:58:24;;;;;;;;;;;14.10;97.40;;;;;;6105668;23;20286;-95
2023/05/12 07:00:50;;;;;;;;;;;14.10;97.40;;;;;;6107148;23;19983;-95
2023/05/12 07:03:16;;;;;;;;;;;14.10;97.40;;;;;;6106075;23;19905;-96
2023/05/12 07:05:42;;;;;;;;;;;14.10;97.40;;;;;;6131452;23;20364;-96
2023/05/12 07:08:27;;;;;;;;;;;14.20;97.40;;;;;;6106757;23;19920;-95
2023/05/12 07:11:18;;;;;;;;;;;14.10;97.40;;;;;;6130730;23;19983;-95
2023/05/12 07:14:05;;;;;;;;;;;14.20;97.40;;;;;;6156318;23;19901;-96
2023/05/12 07:17:11;;;;;;;;;;;14.20;97.40;;;;;;6156583;23;19963;-96
2023/05/12 07:20:16;;;;;;;;;;;14.20;97.40;;;;;;6156894;23;19908;-96
2023/05/12 07:23:25;;;;;;;;;;;14.20;97.40;;;;;;6157069;23;19901;-96
2023/05/12 07:26:17;;;;;;;;;;;14.20;97.40;;;;;;6155866;23;19904;-96
2023/05/12 07:29:14;;;;;;;;;;;14.20;97.40;;;;;;6131929;23;19909;-96
2023/05/12 07:32:05;;;;;;;;;;;14.20;97.40;;;;;;6157334;23;19900;-96
2023/05/12 07:34:52;;;;;;;;;;;14.20;97.40;;;;;;6108159;23;19905;-96
2023/05/12 07:37:56;;;;;;;;;;;14.20;97.30;;;;;;6156480;23;19907;-96
2023/05/12 07:40:49;;;;;;;;;;;14.20;97.30;;;;;;6156300;23;19908;-96
2023/05/12 07:43:47;;;;;;;;;;;14.20;97.30;;;;;;6133286;23;19909;-96
2023/05/12 07:46:56;;;;;;;;;;;14.20;97.30;;;;;;6155990;23;19900;-96
2023/05/12 07:49:23;;;;;;;;;;;14.20;97.30;;;;;;6130789;23;19904;-96
2023/05/12 07:52:27;;;;;;;;;;;14.20;97.30;;;;;;6134730;23;19979;-96
2023/05/12 07:55:32;;;;;;;;;;;14.20;97.30;;;;;;6156532;23;20024;-96
2023/05/12 07:58:22;;;;;;;;;;;14.20;97.30;;;;;;6156086;23;19905;-96
2023/05/12 08:01:24;;;;;;;;;;;14.20;97.30;;;;;;6155986;23;19928;-96
2023/05/12 08:04:12;;;;;;;;;;;14.20;97.20;;;;;;6156217;23;19905;-96
2023/05/12 08:07:18;;;;;;;;;;;14.20;97.20;;;;;;6134527;23;19905;-96
2023/05/12 08:10:28;;;;;;;;;;;14.20;97.20;;;;;;6156316;23;19909;-96
2023/05/12 08:13:25;;;;;;;;;;;14.30;97.20;;;;;;6156691;23;19908;-96
2023/05/12 08:16:36;;;;;;;;;;;14.30;97.20;;;;;;6156443;23;19928;-96
2023/05/12 08:19:39;;;;;;;;;;;14.20;97.20;;;;;;6153609;23;19900;-96
2023/05/12 08:22:33;;;;;;;;;;;14.30;97.20;;;;;;6156089;23;19901;-96
2023/05/12 08:25:02;;;;;;;;;;;14.30;97.20;;;;;;6106455;23;19959;-96
2023/05/12 08:28:34;;;;;;;;;;;14.30;97.20;;;;;;6135617;23;19917;-96
2023/05/12 08:31:32;;;;;;;;;;;14.30;97.20;;;;;;6153414;23;19971;-96
2023/05/12 08:34:03;;;;;;;;;;;14.20;97.10;;;;;;6157707;23;20328;-96
2023/05/12 08:36:54;;;;;;;;;;;14.30;97.10;;;;;;6105668;23;19932;-96
2023/05/12 08:40:00;;;;;;;;;;;14.30;97.10;;;;;;6156354;23;19901;-96
2023/05/12 08:42:50;;;;;;;;;;;14.30;97.10;;;;;;6130026;23;19904;-96
2023/05/12 08:45:58;;;;;;;;;;;14.30;97.10;;;;;;6157350;23;19901;-96
2023/05/12 08:52:02;;;;;;;;;;;14.30;97.10;;;;;;6157698;23;19910;-96
2023/05/12 08:55:16;;;;;;;;;;;14.30;97.10;;;;;;6138078;23;19908;-96
2023/05/12 08:58:19;;;;;;;;;;;14.30;97.10;;;;;;6155864;23;19948;-96
2023/05/12 09:01:31;;;;;;;;;;;14.40;97.10;;;;;;6156809;23;19955;-96
2023/05/12 09:04:16;;;;;;;;;;;14.40;97.10;;;;;;6158547;23;19920;-96
2023/05/12 09:07:33;;;;;;;;;;;14.40;97.00;;;;;;6076037;23;20005;-96
2023/05/12 09:10:27;;;;;;;;;;;14.40;97.00;;;;;;6072603;23;19909;-96
2023/05/12 09:13:39;;;;;;;;;;;;;;;;;;;;;
2023/05/12 09:16:47;;;;;;;;;;;14.40;97.00;;;;;;6098742;23;19984;-96
2023/05/12 09:20:02;;;;;;;;;;;14.50;97.00;;;;;;6107126;23;19962;-96
2023/05/12 09:23:15;;;;;;;;;;;14.60;97.00;;;;;;6000710;24;19903;-96
2023/05/12 09:26:32;;;;;;;;;;;14.40;96.90;;;;;;5981984;24;19906;-96
2023/05/12 09:29:21;;;;;;;;;;;14.50;96.90;;;;;;5998283;23;19933;-96
2023/05/12 09:32:35;;;;;;;;;;;;;;;;;;;;;
2023/05/12 09:35:13;;;;;;;;;;;14.60;96.90;;;;;;6002042;24;19902;-96
2023/05/12 09:41:24;;;;;;;;;;;14.60;96.80;;;;;;6072454;23;19904;-96
2023/05/12 11:46:20;;;;;;;;;;;15.10;95.60;;;;;;6160657;23;19920;-96
2023/05/12 11:49:29;;;;;;;;;;;15.10;95.60;;;;;;6149564;23;19923;-96
2023/05/12 11:55:24;;;;;;;;;;;15.10;95.60;;;;;;6087132;23;19960;-96
2023/05/12 11:58:28;;;;;;;;;;;;;;;;;;;;;
2023/05/12 12:01:38;;;;;;;;;;;15.10;95.60;;;;;;6000234;24;19913;-96
2023/05/12 12:04:30;;;;;;;;;;;15.10;95.60;;;;;;6002256;24;19957;-96
2023/05/12 12:16:40;;;;;;;;;;;;;;;;;;;;;
2023/05/12 12:19:18;;;;;;;;;;;15.00;95.60;;;;;;5913666;24;19904;-96
2023/05/12 12:22:17;;;;;;;;;;;15.10;95.60;;;;;;5916844;24;19903;-96
2023/05/12 12:25:36;;;;;;;;;;;15.00;95.60;;;;;;5884051;24;19902;-96
2023/05/12 12:28:38;;;;;;;;;;;15.00;95.60;;;;;;5948165;24;19911;-96
2023/05/12 12:31:35;;;;;;;;;;;15.00;95.60;;;;;;5916373;24;19908;-96
2023/05/12 12:34:27;;;;;;;;;;;15.00;95.60;;;;;;5946657;24;19915;-96
2023/05/12 12:37:20;;;;;;;;;;;15.00;95.60;;;;;;5923140;24;19955;-96
2023/05/12 12:40:15;;;;;;;;;;;15.00;95.60;;;;;;5943186;24;19903;-96
2023/05/12 12:42:46;;;;;;;;;;;15.00;95.50;;;;;;5918016;24;19994;-96
2023/05/12 12:45:34;;;;;;;;;;;15.00;95.50;;;;;;5894295;24;19908;-96
2023/05/12 12:48:05;;;;;;;;;;;15.00;95.50;;;;;;5839017;24;19921;-96
2023/05/12 12:50:57;;;;;;;;;;;15.00;95.50;;;;;;5838974;24;19944;-96
2023/05/12 12:53:45;;;;;;;;;;;15.00;95.60;;;;;;5840368;24;19889;-96
2023/05/12 12:56:46;;;;;;;;;;;15.00;95.50;;;;;;5880604;24;19887;-96
2023/05/12 12:59:40;;;;;;;;;;;15.00;95.50;;;;;;5899373;24;19911;-96
2023/05/12 13:02:25;;;;;;;;;;;15.00;95.50;;;;;;5942544;24;19919;-96
2023/05/12 13:05:12;;;;;;;;;;;15.10;95.60;;;;;;5973451;24;19928;-96
2023/05/12 13:08:16;;;;;;;;;;;15.00;95.50;;;;;;5972022;24;19914;-96
2023/05/12 13:11:04;;;;;;;;;;;15.00;95.50;;;;;;5997091;23;19910;-96
2023/05/12 13:13:57;;;;;;;;;;;15.00;95.50;;;;;;6046096;23;19909;-96
2023/05/12 13:17:05;;;;;;;;;;;15.30;95.50;;;;;;6115196;23;19902;-96
2023/05/12 13:19:31;;;;;;;;;;;15.00;95.40;;;;;;6093399;23;19897;-96
2023/05/12 13:22:21;;;;;;;;;;;14.90;95.30;;;;;;6095679;23;19889;-96
2023/05/12 13:25:07;;;;;;;;;;;15.20;95.30;;;;;;6011270;23;19902;-96
2023/05/12 13:28:07;;;;;;;;;;;14.90;95.30;;;;;;6009033;23;19917;-96
2023/05/12 13:31:20;;;;;;;;;;;14.90;95.20;;;;;;6002154;24;19902;-96
2023/05/12 13:34:26;;;;;;;;;;;15.20;95.30;;;;;;5998318;24;19903;-96
2023/05/12 13:36:57;;;;;;;;;;;14.90;95.20;;;;;;5926535;24;19903;-95
2023/05/12 13:39:23;;;;;;;;;;;15.00;95.20;;;;;;5905068;24;19903;-96
2023/05/12 13:41:49;;;;;;;;;;;15.00;95.20;;;;;;5906210;24;19903;-96
2023/05/12 13:44:14;;;;;;;;;;;14.90;95.10;;;;;;5904174;24;19918;-96
2023/05/12 13:46:40;;;;;;;;;;;14.90;95.20;;;;;;5904725;24;19911;-94
2023/05/12 13:49:06;;;;;;;;;;;14.90;95.20;;;;;;5881597;24;20250;-96
2023/05/12 13:51:37;;;;;;;;;;;14.90;95.20;;;;;;5934978;24;19916;-94
2023/05/12 13:54:09;;;;;;;;;;;14.90;95.30;;;;;;5905288;24;19903;-96
2023/05/12 13:56:36;;;;;;;;;;;14.90;95.30;;;;;;5904164;24;19911;-96
2023/05/12 13:59:03;;;;;;;;;;;14.90;95.20;;;;;;5904370;24;20391;-95
2023/05/12 14:01:32;;;;;;;;;;;14.90;95.20;;;;;;5939536;24;19902;-94
2023/05/12 14:03:58;;;;;;;;;;;14.90;95.20;;;;;;5982829;23;19902;-94
2023/05/12 14:06:44;;;;;;;;;;;14.90;95.20;;;;;;5982692;23;19977;-96
2023/05/12 14:09:10;;;;;;;;;;;14.90;95.20;;;;;;6063409;23;19940;-95
2023/05/12 14:11:36;;;;;;;;;;;14.90;95.10;;;;;;6020544;23;20275;-95
2023/05/12 14:14:03;;;;;;;;;;;14.90;95.10;;;;;;6031620;23;19905;-96
2023/05/12 14:16:28;;;;;;;;;;;14.90;95.10;;;;;;6108222;23;19973;-95
2023/05/12 14:18:54;;;;;;;;;;;14.90;95.10;;;;;;6132896;23;19909;-96
2023/05/12 14:21:24;;;;;;;;;;;14.90;95.10;;;;;;6108017;23;19905;-95
2023/05/12 14:23:50;;;;;;;;;;;14.90;95.10;;;;;;6108085;23;19988;-95
2023/05/12 14:26:16;;;;;;;;;;;14.90;95.10;;;;;;6132089;23;19901;-95
2023/05/12 14:28:42;;;;;;;;;;;14.90;95.10;;;;;;6132089;23;19912;-95
2023/05/12 14:31:08;;;;;;;;;;;14.90;95.10;;;;;;6108199;23;20223;-95
2023/05/12 14:33:34;;;;;;;;;;;14.90;95.10;;;;;;6108206;23;19905;-94
2023/05/12 14:36:20;;;;;;;;;;;14.90;95.20;;;;;;6132466;23;19908;-96
2023/05/12 14:38:47;;;;;;;;;;;14.90;95.20;;;;;;6132197;23;19924;-94
2023/05/12 14:41:13;;;;;;;;;;;14.90;95.20;;;;;;6132725;23;20233;-95
2023/05/12 14:46:33;;;;;;;;;;;14.90;95.20;;;;;;6143257;23;19924;-95
2023/05/12 14:48:59;;;;;;;;;;;14.90;95.30;;;;;;6132092;23;20242;-94
2023/05/12 14:51:28;;;;;;;;;;;14.90;95.20;;;;;;6132180;23;20397;-96
2023/05/12 14:53:55;;;;;;;;;;;14.90;95.30;;;;;;6107428;23;19904;-95
2023/05/12 14:56:21;;;;;;;;;;;14.90;95.30;;;;;;6131656;23;19900;-95
2023/05/12 14:58:46;;;;;;;;;;;14.90;95.30;;;;;;6131906;23;19908;-96
2023/05/12 15:01:12;;;;;;;;;;;14.90;95.30;;;;;;6131931;23;19907;-95
2023/05/12 15:03:38;;;;;;;;;;;14.90;95.20;;;;;;6130823;23;19900;-96
2023/05/12 15:06:05;;;;;;;;;;;14.90;95.20;;;;;;6131092;23;20257;-95
2023/05/12 15:08:31;;;;;;;;;;;14.90;95.20;;;;;;6131724;23;19912;-95
2023/05/12 15:10:57;;;;;;;;;;;14.90;95.20;;;;;;6130898;23;19901;-94
2023/05/12 15:13:25;;;;;;;;;;;14.80;95.20;;;;;;6130792;23;20234;-95
2023/05/12 15:16:04;;;;;;;;;;;14.80;95.10;;;;;;6106818;23;19905;-96
2023/05/12 15:18:30;;;;;;;;;;;14.80;95.20;;;;;;6106357;23;19905;-96
2023/05/12 15:20:59;;;;;;;;;;;14.90;95.30;;;;;;6106945;23;19912;-94
2023/05/12 15:23:27;;;;;;;;;;;14.80;95.20;;;;;;6108270;23;19916;-96
2023/05/12 15:25:56;;;;;;;;;;;14.80;95.30;;;;;;6107319;23;19911;-96
2023/05/12 15:28:22;;;;;;;;;;;14.90;95.40;;;;;;6131109;23;19971;-95
2023/05/12 15:31:03;;;;;;;;;;;14.80;95.40;;;;;;6106642;23;19947;-94
2023/05/12 15:33:29;;;;;;;;;;;14.80;95.40;;;;;;6130551;23;19908;-95
2023/05/12 15:35:55;;;;;;;;;;;14.80;95.40;;;;;;6106956;23;19908;-94
2023/05/12 15:38:27;;;;;;;;;;;14.80;95.40;;;;;;6131041;23;20233;-96
2023/05/12 15:41:16;;;;;;;;;;;14.80;95.50;;;;;;6130690;23;20340;-96
2023/05/12 15:44:07;;;;;;;;;;;14.80;95.50;;;;;;6168684;23;19955;-96
2023/05/12 15:46:35;;;;;;;;;;;14.80;95.50;;;;;;6158726;23;19912;-96
2023/05/12 15:49:02;;;;;;;;;;;14.80;95.50;;;;;;6140525;23;19963;-96
2023/05/12 15:51:28;;;;;;;;;;;14.80;95.60;;;;;;6133992;23;19900;-95
2023/05/12 15:53:55;;;;;;;;;;;14.80;95.60;;;;;;6109703;23;19911;-96
2023/05/12 15:56:43;;;;;;;;;;;14.80;95.60;;;;;;6111660;23;19940;-96
2023/05/12 15:59:20;;;;;;;;;;;14.80;95.60;;;;;;6141451;23;19901;-96
2023/05/12 16:01:46;;;;;;;;;;;14.80;95.50;;;;;;6141198;23;19907;-96
2023/05/12 16:04:38;;;;;;;;;;;14.80;95.50;;;;;;6143609;23;19901;-96
2023/05/12 16:07:33;;;;;;;;;;;14.80;95.80;;;;;;6147649;23;19911;-96
2023/05/12 16:13:51;;;;;;;;;;;15.00;95.50;;;;;;5937072;24;19903;-96
2023/05/12 16:16:27;;;;;;;;;;;;;;;;;;;;;
2023/05/12 16:19:35;;;;;;;;;;;;;;;;;;;;;
2023/05/12 16:22:33;;;;;;;;;;;14.80;95.50;;;;;;5854853;24;19943;-96
2023/05/12 16:25:22;;;;;;;;;;;14.80;95.50;;;;;;5852994;24;20017;-96
2023/05/12 16:28:17;;;;;;;;;;;14.80;95.50;;;;;;5856230;24;19908;-96
2023/05/12 16:31:32;;;;;;;;;;;14.80;95.50;;;;;;5860296;24;19899;-96
2023/05/12 16:34:40;;;;;;;;;;;14.80;95.50;;;;;;5846547;24;19908;-96
2023/05/12 16:40:50;;;;;;;;;;;14.80;95.50;;;;;;5867030;24;19911;-96
2023/05/12 16:43:52;;;;;;;;;;;14.80;95.50;;;;;;5888964;24;19887;-96
2023/05/12 16:46:46;;;;;;;;;;;14.70;95.50;;;;;;5888198;24;19943;-96
2023/05/12 16:49:34;;;;;;;;;;;14.70;95.50;;;;;;5874255;24;19907;-96
2023/05/12 16:52:51;;;;;;;;;;;14.70;95.50;;;;;;5966825;24;19915;-96
2023/05/12 16:55:46;;;;;;;;;;;14.70;95.50;;;;;;5966366;24;19981;-96
2023/05/12 16:58:12;;;;;;;;;;;14.70;95.50;;;;;;5967765;23;19929;-96
2023/05/12 17:01:50;;;;;;;;;;;14.70;95.60;;;;;;6032427;23;20378;-96
2023/05/12 17:04:26;;;;;;;;;;;14.70;95.60;;;;;;6065104;23;19906;-96
2023/05/12 17:07:22;;;;;;;;;;;14.70;95.50;;;;;;5996507;23;19906;-96
2023/05/12 17:13:34;;;;;;;;;;;14.70;95.60;;;;;;5913356;24;19927;-96
2023/05/12 17:17:01;;;;;;;;;;;14.70;95.60;;;;;;5864208;24;19915;-96
2023/05/12 17:19:40;;;;;;;;;;;14.70;95.60;;;;;;5884120;24;19911;-96
2023/05/12 17:23:09;;;;;;;;;;;;;;;;;;;;;
2023/05/12 17:26:07;;;;;;;;;;;14.70;95.60;;;;;;5884938;24;19904;-96
2023/05/12 17:28:53;;;;;;;;;;;14.60;95.70;;;;;;5882940;24;19908;-96
2023/05/12 17:31:50;;;;;;;;;;;14.60;95.70;;;;;;5866741;24;19999;-96
2023/05/12 17:34:40;;;;;;;;;;;14.70;95.80;;;;;;5879018;24;19911;-96
2023/05/12 17:40:41;;;;;;;;;;;14.70;95.80;;;;;;5791279;24;19904;-96
2023/05/12 17:43:54;;;;;;;;;;;14.60;95.80;;;;;;5825740;24;19904;-96
2023/05/12 17:46:40;;;;;;;;;;;14.70;95.90;;;;;;5887436;24;19947;-96
2023/05/12 17:52:38;;;;;;;;;;;14.60;95.90;;;;;;5941436;24;19911;-96
2023/05/12 17:55:45;;;;;;;;;;;14.60;95.90;;;;;;5912850;24;19979;-96
2023/05/12 17:59:00;;;;;;;;;;;14.60;95.90;;;;;;5969251;24;19903;-96
2023/05/12 18:01:46;;;;;;;;;;;14.60;96.00;;;;;;5940156;24;19941;-96
2023/05/12 18:04:39;;;;;;;;;;;14.60;96.00;;;;;;5944796;24;19947;-96
2023/05/12 18:07:36;;;;;;;;;;;14.60;96.00;;;;;;5965681;24;19903;-94
2023/05/12 18:10:39;;;;;;;;;;;;;;;;;;;;;
2023/05/12 18:13:37;;;;;;;;;;;14.60;96.00;;;;;;5967628;24;19914;-96
2023/05/12 18:27:06;;;;;;;;;;;14.50;96.00;;;;;;5832597;24;19905;-96
2023/05/12 18:29:58;;;;;;;;;;;14.50;96.00;;;;;;5799597;24;20037;-96
2023/05/12 18:32:59;;;;;;;;;;;14.50;96.00;;;;;;5774324;24;19940;-96
2023/05/12 18:39:41;;;;;;;;;;;14.50;96.10;;;;;;5754924;25;19933;-96
2023/05/12 18:42:33;;;;;;;;;;;14.50;96.10;;;;;;5743528;25;19973;-96
2023/05/12 18:45:21;;;;;;;;;;;14.50;96.10;;;;;;5726423;25;19913;-96
2023/05/12 18:51:32;;;;;;;;;;;14.50;96.10;;;;;;5728254;25;19934;-96
2023/05/12 18:54:26;;;;;;;;;;;14.50;96.10;;;;;;5722846;24;19906;-96
2023/05/12 18:57:27;;;;;;;;;;;;;;;;;;;;;
2023/05/12 19:03:31;;;;;;;;;;;14.50;96.10;;;;;;5925500;24;19909;-96